Time,TemperatureF,DewpointF,PressureIn,WindDirection,WindDirectionDegrees,WindSpeedMPH,WindSpeedGustMPH,Humidity,HourlyPrecipIn,Conditions,Clouds,dailyrainin,SoftwareType,DateUTC
2013-02-13 00:00:00,44.2,32.5,30.32,North,351,0.0,0.0,63,0.00,,CLR,0.00,VWS V14.01,2013-02-13 08:00:00,
2013-02-13 00:10:00,44.1,32.3,30.32,North,351,0.0,0.0,63,0.00,,CLR,0.00,VWS V14.01,2013-02-13 08:10:00,
2013-02-13 00:20:00,43.7,32.0,30.29,North,351,0.0,3.2,63,0.00,,CLR,0.00,VWS V14.01,2013-02-13 08:20:00,
2013-02-13 00:30:00,43.3,31.6,30.29,NNE,16,3.8,3.8,63,0.00,,CLR,0.00,VWS V14.01,2013-02-13 08:30:00,
2013-02-13 00:40:00,43.3,31.2,30.29,North,356,0.0,4.3,62,0.00,,CLR,0.00,VWS V14.01,2013-02-13 08:40:00,
2013-02-13 00:50:00,43.3,31.2,30.29,North,356,0.0,3.2,62,0.00,,CLR,0.00,VWS V14.01,2013-02-13 08:50:00,
2013-02-13 01:00:00,43.2,31.0,30.29,NE,49,2.7,3.8,62,0.00,,CLR,0.00,VWS V14.01,2013-02-13 09:00:00,
2013-02-13 01:10:00,42.6,30.9,30.29,NNE,19,4.3,5.9,63,0.00,,CLR,0.00,VWS V14.01,2013-02-13 09:10:00,
2013-02-13 01:20:00,42.3,30.6,30.29,North,6,0.0,4.3,63,0.00,,CLR,0.00,VWS V14.01,2013-02-13 09:20:00,
2013-02-13 01:30:00,42.1,30.4,30.29,North,6,0.0,0.0,63,0.00,,CLR,0.00,VWS V14.01,2013-02-13 09:30:00,
2013-02-13 01:40:00,41.9,30.6,30.29,North,6,0.0,0.0,64,0.00,,CLR,0.00,VWS V14.01,2013-02-13 09:40:00,
2013-02-13 01:50:00,41.7,30.8,30.29,North,6,0.0,0.0,65,0.00,,CLR,0.00,VWS V14.01,2013-02-13 09:50:00,
2013-02-13 02:00:00,41.4,30.5,30.29,North,6,0.0,3.2,65,0.00,,CLR,0.00,VWS V14.01,2013-02-13 10:00:00,
2013-02-13 02:10:00,41.2,30.7,30.29,NNW,328,2.7,4.8,66,0.00,,CLR,0.00,VWS V14.01,2013-02-13 10:10:00,
2013-02-13 02:20:00,41.0,30.5,30.29,NNW,328,2.7,3.8,66,0.00,,CLR,0.00,VWS V14.01,2013-02-13 10:20:00,
2013-02-13 02:30:00,41.0,30.5,30.29,NNE,30,0.0,4.3,66,0.00,,CLR,0.00,VWS V14.01,2013-02-13 10:30:00,
2013-02-13 02:40:00,40.6,30.5,30.29,NNE,25,0.0,0.0,67,0.00,,CLR,0.00,VWS V14.01,2013-02-13 10:40:00,
2013-02-13 02:50:00,40.6,30.5,30.29,NE,47,0.0,0.0,67,0.00,,CLR,0.00,VWS V14.01,2013-02-13 10:50:00,
2013-02-13 03:00:00,40.3,30.6,30.29,NE,43,0.0,3.2,68,0.00,,CLR,0.00,VWS V14.01,2013-02-13 11:00:00,
2013-02-13 03:10:00,40.3,30.6,30.29,NE,43,0.0,3.2,68,0.00,,CLR,0.00,VWS V14.01,2013-02-13 11:10:00,
2013-02-13 03:20:00,39.9,30.2,30.29,NE,43,0.0,0.0,68,0.00,,CLR,0.00,VWS V14.01,2013-02-13 11:20:00,
2013-02-13 03:30:00,39.7,30.4,30.29,North,8,0.0,0.0,69,0.00,,CLR,0.00,VWS V14.01,2013-02-13 11:30:00,
2013-02-13 03:40:00,39.7,30.4,30.26,NE,45,0.0,3.2,69,0.00,,CLR,0.00,VWS V14.01,2013-02-13 11:40:00,
2013-02-13 03:50:00,39.4,30.4,30.26,North,356,3.8,4.3,70,0.00,,CLR,0.00,VWS V14.01,2013-02-13 11:50:00,
2013-02-13 04:00:00,39.4,30.4,30.26,North,4,0.0,4.3,70,0.00,,CLR,0.00,VWS V14.01,2013-02-13 12:00:00,
2013-02-13 04:10:00,39.4,30.4,30.26,North,4,0.0,0.0,70,0.00,,CLR,0.00,VWS V14.01,2013-02-13 12:10:00,
2013-02-13 04:20:00,39.2,30.2,30.26,North,4,0.0,0.0,70,0.00,,CLR,0.00,VWS V14.01,2013-02-13 12:20:00,
2013-02-13 04:30:00,39.0,30.4,30.26,North,4,0.0,2.7,71,0.00,,CLR,0.00,VWS V14.01,2013-02-13 12:30:00,
2013-02-13 04:40:00,38.8,30.3,30.26,North,4,0.0,0.0,71,0.00,,CLR,0.00,VWS V14.01,2013-02-13 12:40:00,
2013-02-13 04:50:00,38.7,30.1,30.26,North,4,0.0,0.0,71,0.00,,CLR,0.00,VWS V14.01,2013-02-13 12:50:00,
2013-02-13 05:00:00,38.7,30.1,30.26,North,4,0.0,0.0,71,0.00,,CLR,0.00,VWS V14.01,2013-02-13 13:00:00,
2013-02-13 05:10:00,38.7,30.4,30.26,North,4,2.7,2.7,72,0.00,,CLR,0.00,VWS V14.01,2013-02-13 13:10:00,
2013-02-13 05:20:00,38.7,30.4,30.26,NW,309,0.0,4.3,72,0.00,,CLR,0.00,VWS V14.01,2013-02-13 13:20:00,
2013-02-13 05:30:00,38.8,30.6,30.26,NW,305,0.0,0.0,72,0.00,,CLR,0.00,VWS V14.01,2013-02-13 13:30:00,
2013-02-13 05:40:00,39.0,30.8,30.26,NW,305,0.0,2.7,72,0.00,,CLR,0.00,VWS V14.01,2013-02-13 13:40:00,
2013-02-13 05:50:00,39.2,30.6,30.26,NW,306,0.0,2.7,71,0.00,,CLR,0.00,VWS V14.01,2013-02-13 13:50:00,
2013-02-13 06:00:00,39.2,30.6,30.26,NW,305,0.0,0.0,71,0.00,,CLR,0.00,VWS V14.01,2013-02-13 14:00:00,
2013-02-13 06:10:00,39.4,30.8,30.26,NW,320,0.0,3.2,71,0.00,,CLR,0.00,VWS V14.01,2013-02-13 14:10:00,
2013-02-13 06:20:00,39.4,30.8,30.26,NE,48,0.0,0.0,71,0.00,,CLR,0.00,VWS V14.01,2013-02-13 14:20:00,
2013-02-13 06:30:00,39.2,30.6,30.26,NE,44,0.0,0.0,71,0.00,,CLR,0.00,VWS V14.01,2013-02-13 14:30:00,
2013-02-13 06:40:00,39.2,30.6,30.26,NE,34,0.0,0.0,71,0.00,,CLR,0.00,VWS V14.01,2013-02-13 14:40:00,
2013-02-13 06:50:00,39.0,30.4,30.26,NNE,18,0.0,0.0,71,0.00,,CLR,0.00,VWS V14.01,2013-02-13 14:50:00,
2013-02-13 07:00:00,39.0,30.4,30.26,NNE,25,3.2,4.8,71,0.00,,CLR,0.00,VWS V14.01,2013-02-13 15:00:00,
2013-02-13 07:10:00,39.2,30.6,30.29,NE,53,4.3,4.8,71,0.00,,CLR,0.00,VWS V14.01,2013-02-13 15:10:00,
2013-02-13 07:20:00,39.9,30.9,30.29,NNE,15,4.8,7.0,70,0.00,,CLR,0.00,VWS V14.01,2013-02-13 15:20:00,
2013-02-13 07:30:00,42.1,31.9,30.29,NNE,18,7.5,9.1,67,0.00,,CLR,0.00,VWS V14.01,2013-02-13 15:30:00,
2013-02-13 07:40:00,46.2,31.0,30.29,North,0,12.6,12.6,55,0.00,,CLR,0.00,VWS V14.01,2013-02-13 15:40:00,
2013-02-13 07:50:00,48.2,30.5,30.29,North,351,9.1,12.6,50,0.00,,CLR,0.00,VWS V14.01,2013-02-13 15:50:00,
2013-02-13 08:00:00,49.6,30.8,30.29,NNE,23,4.3,13.2,48,0.00,,CLR,0.00,VWS V14.01,2013-02-13 16:00:00,
2013-02-13 08:10:00,50.7,30.7,30.29,North,8,6.4,10.5,46,0.00,,CLR,0.00,VWS V14.01,2013-02-13 16:10:00,
2013-02-13 08:20:00,51.8,30.0,30.29,North,5,7.0,12.6,43,0.00,,CLR,0.00,VWS V14.01,2013-02-13 16:20:00,
2013-02-13 08:30:00,52.9,29.8,30.29,North,3,9.9,12.1,41,0.00,,CLR,0.00,VWS V14.01,2013-02-13 16:30:00,
2013-02-13 08:40:00,53.6,29.9,30.29,NNE,13,7.5,13.7,40,0.00,,CLR,0.00,VWS V14.01,2013-02-13 16:40:00,
2013-02-13 08:50:00,54.3,29.9,30.29,ENE,72,12.1,14.8,39,0.00,,CLR,0.00,VWS V14.01,2013-02-13 16:50:00,
2013-02-13 09:00:00,54.9,29.8,30.29,NNE,25,12.1,13.2,38,0.00,,CLR,0.00,VWS V14.01,2013-02-13 17:00:00,
2013-02-13 09:10:00,55.9,30.7,30.29,ENE,62,7.5,12.1,38,0.00,,CLR,0.00,VWS V14.01,2013-02-13 17:10:00,
2013-02-13 09:20:00,56.8,30.9,30.29,NNE,20,9.9,13.2,37,0.00,,CLR,0.00,VWS V14.01,2013-02-13 17:20:00,
2013-02-13 09:30:00,57.4,30.7,30.29,NNE,22,7.0,12.1,36,0.00,,CLR,0.00,VWS V14.01,2013-02-13 17:30:00,
2013-02-13 09:40:00,58.1,31.3,30.29,ENE,71,6.4,12.6,36,0.00,,CLR,0.00,VWS V14.01,2013-02-13 17:40:00,
2013-02-13 09:50:00,58.5,31.6,30.29,ENE,77,5.9,9.9,36,0.00,,CLR,0.00,VWS V14.01,2013-02-13 17:50:00,
2013-02-13 10:00:00,58.8,32.0,30.29,ENE,63,7.0,10.5,36,0.00,,CLR,0.00,VWS V14.01,2013-02-13 18:00:00,
2013-02-13 10:10:00,59.4,32.4,30.29,NNE,30,4.3,9.7,36,0.00,,CLR,0.00,VWS V14.01,2013-02-13 18:10:00,
2013-02-13 10:20:00,60.1,33.1,30.29,NNE,30,4.8,7.0,36,0.00,,CLR,0.00,VWS V14.01,2013-02-13 18:20:00,
2013-02-13 10:30:00,60.6,33.5,30.29,ENE,57,3.8,7.0,36,0.00,,CLR,0.00,VWS V14.01,2013-02-13 18:30:00,
2013-02-13 10:40:00,61.5,33.6,30.29,NNE,26,3.8,9.1,35,0.00,,CLR,0.00,VWS V14.01,2013-02-13 18:40:00,
2013-02-13 10:50:00,62.2,33.5,30.29,NW,311,0.0,5.4,34,0.00,,CLR,0.00,VWS V14.01,2013-02-13 18:50:00,
2013-02-13 11:00:00,63.9,35.0,30.29,SSW,202,0.0,5.9,34,0.00,,CLR,0.00,VWS V14.01,2013-02-13 19:00:00,
2013-02-13 11:10:00,64.9,38.8,30.26,SSW,211,7.0,8.6,38,0.00,,CLR,0.00,VWS V14.01,2013-02-13 19:10:00,
2013-02-13 11:20:00,64.9,40.1,30.26,SW,216,8.1,10.5,40,0.00,,CLR,0.00,VWS V14.01,2013-02-13 19:20:00,
2013-02-13 11:30:00,65.1,40.9,30.26,South,177,3.2,9.1,41,0.00,,CLR,0.00,VWS V14.01,2013-02-13 19:30:00,
2013-02-13 11:40:00,64.9,39.4,30.26,West,277,9.1,9.7,39,0.00,,CLR,0.00,VWS V14.01,2013-02-13 19:40:00,
2013-02-13 11:50:00,64.8,39.9,30.26,SSW,210,8.1,9.7,40,0.00,,FEW004,0.00,VWS V14.01,2013-02-13 19:50:00,
2013-02-13 12:00:00,64.9,40.1,30.26,SSW,203,5.9,9.7,40,0.00,,FEW004,0.00,VWS V14.01,2013-02-13 20:00:00,
2013-02-13 12:10:00,65.5,40.5,30.26,WSW,256,6.4,9.7,40,0.00,,FEW004,0.00,VWS V14.01,2013-02-13 20:10:00,
2013-02-13 12:20:00,65.5,39.2,30.23,South,175,3.2,11.0,38,0.00,,FEW004,0.00,VWS V14.01,2013-02-13 20:20:00,
2013-02-13 12:30:00,65.8,40.9,30.23,SW,223,7.5,10.5,40,0.00,,FEW004,0.00,VWS V14.01,2013-02-13 20:30:00,
2013-02-13 12:40:00,65.5,40.5,30.23,SW,235,3.8,12.6,40,0.00,,FEW004,0.00,VWS V14.01,2013-02-13 20:40:00,
2013-02-13 12:50:00,65.7,41.3,30.23,SSW,199,7.0,9.9,41,0.00,,FEW004,0.00,VWS V14.01,2013-02-13 20:50:00,
2013-02-13 13:00:00,65.5,41.2,30.23,WSW,243,9.1,10.5,41,0.00,,CLR,0.00,VWS V14.01,2013-02-13 21:00:00,
2013-02-13 13:10:00,64.6,42.2,30.23,SW,217,3.8,13.2,44,0.00,,CLR,0.00,VWS V14.01,2013-02-13 21:10:00,
2013-02-13 13:20:00,64.6,42.2,30.23,SW,215,7.5,10.5,44,0.00,,CLR,0.00,VWS V14.01,2013-02-13 21:20:00,
2013-02-13 13:30:00,64.4,42.0,30.23,SSE,161,4.3,9.9,44,0.00,,CLR,0.00,VWS V14.01,2013-02-13 21:30:00,
2013-02-13 13:40:00,64.6,42.8,30.23,SW,231,9.9,9.9,45,0.00,,CLR,0.00,VWS V14.01,2013-02-13 21:40:00,
2013-02-13 13:50:00,64.6,41.6,30.20,WSW,238,4.8,9.9,43,0.00,,CLR,0.00,VWS V14.01,2013-02-13 21:50:00,
2013-02-13 14:00:00,65.3,41.6,30.20,South,184,3.2,9.7,42,0.00,,CLR,0.00,VWS V14.01,2013-02-13 22:00:00,
2013-02-13 14:10:00,66.2,40.5,30.20,South,188,9.7,9.7,39,0.00,,CLR,0.00,VWS V14.01,2013-02-13 22:10:00,
2013-02-13 14:20:00,66.4,40.7,30.20,SSE,163,5.4,9.7,39,0.00,,CLR,0.00,VWS V14.01,2013-02-13 22:20:00,
2013-02-13 14:30:00,66.4,40.0,30.20,South,186,7.5,9.7,38,0.00,,CLR,0.00,VWS V14.01,2013-02-13 22:30:00,
2013-02-13 14:40:00,66.4,39.3,30.20,SSW,212,4.8,11.5,37,0.00,,CLR,0.00,VWS V14.01,2013-02-13 22:40:00,
2013-02-13 14:50:00,65.5,40.5,30.20,SSW,198,4.3,12.6,40,0.00,,CLR,0.00,VWS V14.01,2013-02-13 22:50:00,
2013-02-13 15:00:00,64.6,42.2,30.20,WSW,241,9.7,12.6,44,0.00,,CLR,0.00,VWS V14.01,2013-02-13 23:00:00,
2013-02-13 15:10:00,63.7,43.6,30.20,SSW,201,4.3,13.7,48,0.00,,CLR,0.00,VWS V14.01,2013-02-13 23:10:00,
2013-02-13 15:20:00,63.7,44.2,30.20,SSW,197,7.0,12.1,49,0.00,,CLR,0.00,VWS V14.01,2013-02-13 23:20:00,
2013-02-13 15:30:00,63.5,45.1,30.20,SSW,207,3.8,12.6,51,0.00,,CLR,0.00,VWS V14.01,2013-02-13 23:30:00,
2013-02-13 15:40:00,63.3,45.4,30.20,WSW,243,7.5,9.7,52,0.00,,CLR,0.00,VWS V14.01,2013-02-13 23:40:00,
2013-02-13 15:50:00,62.4,45.6,30.20,WSW,245,7.5,9.7,54,0.00,,CLR,0.00,VWS V14.01,2013-02-13 23:50:00,
2013-02-13 16:00:00,61.7,44.9,30.20,SW,235,7.5,12.6,54,0.00,,CLR,0.00,VWS V14.01,2013-02-14 00:00:00,
2013-02-13 16:10:00,61.0,43.8,30.20,South,189,2.7,11.0,53,0.00,,CLR,0.00,VWS V14.01,2013-02-14 00:10:00,
2013-02-13 16:20:00,60.6,44.4,30.17,WSW,244,7.0,9.7,55,0.00,,CLR,0.00,VWS V14.01,2013-02-14 00:20:00,
2013-02-13 16:30:00,59.7,43.1,30.17,SW,217,7.5,9.9,54,0.00,,CLR,0.00,VWS V14.01,2013-02-14 00:30:00,
2013-02-13 16:40:00,59.2,43.0,30.17,SW,218,3.2,9.7,55,0.00,,CLR,0.00,VWS V14.01,2013-02-14 00:40:00,
2013-02-13 16:50:00,58.8,43.2,30.17,WSW,245,6.4,7.5,56,0.00,,CLR,0.00,VWS V14.01,2013-02-14 00:50:00,
2013-02-13 17:00:00,58.8,43.6,30.17,SSW,209,6.4,7.5,57,0.00,,CLR,0.00,VWS V14.01,2013-02-14 01:00:00,
2013-02-13 17:10:00,58.5,43.8,30.17,SW,229,2.7,6.4,58,0.00,,CLR,0.00,VWS V14.01,2013-02-14 01:10:00,
2013-02-13 17:20:00,58.1,43.9,30.17,WSW,243,0.0,4.3,59,0.00,,CLR,0.00,VWS V14.01,2013-02-14 01:20:00,
2013-02-13 17:30:00,57.7,44.0,30.17,SSW,195,3.8,6.4,60,0.00,,CLR,0.00,VWS V14.01,2013-02-14 01:30:00,
2013-02-13 17:40:00,57.2,43.9,30.17,SW,214,0.0,4.8,61,0.00,,CLR,0.00,VWS V14.01,2013-02-14 01:40:00,
2013-02-13 17:50:00,56.8,44.4,30.17,SW,224,0.0,0.0,63,0.00,,CLR,0.00,VWS V14.01,2013-02-14 01:50:00,
2013-02-13 18:00:00,56.7,44.2,30.17,SW,216,0.0,5.4,63,0.00,,CLR,0.00,VWS V14.01,2013-02-14 02:00:00,
2013-02-13 18:10:00,56.3,44.7,30.17,South,185,0.0,4.3,65,0.00,,CLR,0.00,VWS V14.01,2013-02-14 02:10:00,
2013-02-13 18:20:00,55.9,44.4,30.17,South,185,0.0,0.0,65,0.00,,CLR,0.00,VWS V14.01,2013-02-14 02:20:00,
2013-02-13 18:30:00,55.0,44.3,30.17,NW,316,0.0,3.2,67,0.00,,CLR,0.00,VWS V14.01,2013-02-14 02:30:00,
2013-02-13 18:40:00,54.3,44.0,30.17,NNE,12,4.3,4.3,68,0.00,,CLR,0.00,VWS V14.01,2013-02-14 02:40:00,
2013-02-13 18:50:00,53.6,43.7,30.17,North,356,2.7,4.3,69,0.00,,CLR,0.00,VWS V14.01,2013-02-14 02:50:00,
2013-02-13 19:00:00,53.1,43.5,30.17,North,356,0.0,3.8,70,0.00,,CLR,0.00,VWS V14.01,2013-02-14 03:00:00,
2013-02-13 19:10:00,52.5,43.4,30.17,North,356,2.7,4.3,71,0.00,,CLR,0.00,VWS V14.01,2013-02-14 03:10:00,
2013-02-13 19:20:00,52.2,43.4,30.17,North,356,3.2,4.3,72,0.00,,CLR,0.00,VWS V14.01,2013-02-14 03:20:00,
2013-02-13 19:30:00,51.8,43.4,30.17,North,356,0.0,3.2,73,0.00,,CLR,0.00,VWS V14.01,2013-02-14 03:30:00,
2013-02-13 19:50:00,51.4,43.4,30.20,North,356,0.0,2.7,74,0.00,,CLR,0.00,VWS V14.01,2013-02-14 03:50:00,
2013-02-13 20:00:00,51.3,43.3,30.20,North,356,0.0,2.7,74,0.00,,CLR,0.00,VWS V14.01,2013-02-14 04:00:00,
2013-02-13 20:10:00,50.9,42.9,30.20,North,356,0.0,0.0,74,0.00,,CLR,0.00,VWS V14.01,2013-02-14 04:10:00,
2013-02-13 20:20:00,50.5,42.6,30.20,North,356,0.0,0.0,74,0.00,,CLR,0.00,VWS V14.01,2013-02-14 04:20:00,
2013-02-13 20:30:00,50.2,42.2,30.20,North,356,0.0,0.0,74,0.00,,CLR,0.00,VWS V14.01,2013-02-14 04:30:00,
2013-02-13 20:40:00,50.0,42.4,30.20,North,356,0.0,0.0,75,0.00,,CLR,0.00,VWS V14.01,2013-02-14 04:40:00,
2013-02-13 20:50:00,49.6,42.0,30.20,North,356,0.0,2.7,75,0.00,,CLR,0.00,VWS V14.01,2013-02-14 04:50:00,
2013-02-13 21:00:00,49.6,42.0,30.20,North,356,0.0,0.0,75,0.00,,CLR,0.00,VWS V14.01,2013-02-14 05:00:00,
2013-02-13 21:10:00,49.1,41.5,30.20,North,356,0.0,0.0,75,0.00,,CLR,0.00,VWS V14.01,2013-02-14 05:10:00,
2013-02-13 21:20:00,48.9,41.4,30.20,North,356,3.2,4.3,75,0.00,,CLR,0.00,VWS V14.01,2013-02-14 05:20:00,
2013-02-13 21:30:00,48.7,41.5,30.20,NNE,26,3.2,7.0,76,0.00,,CLR,0.00,VWS V14.01,2013-02-14 05:30:00,
2013-02-13 21:40:00,48.9,42.0,30.20,NNE,23,4.3,6.4,77,0.00,,CLR,0.00,VWS V14.01,2013-02-14 05:40:00,
2013-02-13 21:50:00,48.9,42.0,30.20,NE,34,5.9,7.0,77,0.00,,CLR,0.00,VWS V14.01,2013-02-14 05:50:00,
2013-02-13 22:00:00,49.3,42.4,30.20,NNE,26,6.4,7.5,77,0.00,,CLR,0.00,VWS V14.01,2013-02-14 06:00:00,
2013-02-13 22:10:00,49.5,42.2,30.20,North,7,3.8,6.4,76,0.00,,CLR,0.00,VWS V14.01,2013-02-14 06:10:00,
2013-02-13 22:20:00,49.5,42.2,30.20,North,2,3.8,7.0,76,0.00,,CLR,0.00,VWS V14.01,2013-02-14 06:20:00,
2013-02-13 22:30:00,49.3,41.7,30.20,NNE,26,4.3,6.4,75,0.00,,CLR,0.00,VWS V14.01,2013-02-14 06:30:00,
2013-02-13 22:40:00,49.5,41.9,30.20,North,9,5.9,6.4,75,0.00,,CLR,0.00,VWS V14.01,2013-02-14 06:40:00,
2013-02-13 22:50:00,49.8,41.9,30.20,NNE,21,4.8,7.5,74,0.00,,CLR,0.00,VWS V14.01,2013-02-14 06:50:00,
2013-02-13 23:00:00,49.5,41.2,30.20,NE,38,4.3,5.9,73,0.00,,CLR,0.00,VWS V14.01,2013-02-14 07:00:00,
2013-02-13 23:10:00,49.3,41.0,30.20,NE,44,3.2,7.5,73,0.00,,CLR,0.00,VWS V14.01,2013-02-14 07:10:00,
2013-02-13 23:20:00,48.7,40.8,30.20,NNE,24,4.3,7.5,74,0.00,,CLR,0.00,VWS V14.01,2013-02-14 07:20:00,
2013-02-13 23:30:00,48.0,40.8,30.20,NNE,25,3.2,9.1,76,0.00,,CLR,0.00,VWS V14.01,2013-02-14 07:30:00,
2013-02-13 23:40:00,47.8,40.7,30.20,North,8,4.3,7.0,76,0.00,,CLR,0.00,VWS V14.01,2013-02-14 07:40:00,
2013-02-13 23:50:00,47.5,40.0,30.20,North,6,0.0,4.3,75,0.00,,CLR,0.00,VWS V14.01,2013-02-14 07:50:00,